Time;durP1;ratioP1;P1;durP2;ratioP2;P2;SDS_P1;SDS_P2;PMS_P1;PMS_P2;Temp;Humidity;BMP_temperature;BMP_pressure;BME280_temperature;BME280_humidity;BME280_pressure;Samples;Min_cycle;Max_cycle;Signal;HPM_P1;HPM_P2
2022/09/16 00:08:27;;;;;;;7.2;10.5;;;;;;;13.6;86.5;97770;;;;
2022/09/16 00:19:27;;;;;;;6.3;10.4;;;;;;;13.8;86.4;97770;;;;
2022/09/16 00:30:27;;;;;;;6.3;10.4;;;;;;;13.9;86.1;97780;;;;
2022/09/16 00:40:27;;;;;;;6.9;11.6;;;;;;;14;86;97780;;;;
2022/09/16 00:50:27;;;;;;;6.9;11.6;;;;;;;14;85.9;97780;;;;
2022/09/16 01:00:27;;;;;;;6.9;11.6;;;;;;;14.1;85.8;97780;;;;
2022/09/16 01:11:28;;;;;;;6.2;10;;;;;;;14.1;85.5;97790;;;;
2022/09/16 01:22:27;;;;;;;6.2;10;;;;;;;14.1;85.9;97800;;;;
2022/09/16 01:33:27;;;;;;;6.2;10;;;;;;;14.2;86;97800;;;;
2022/09/16 01:44:27;;;;;;;9;11.9;;;;;;;14.2;85.9;97800;;;;
2022/09/16 01:54:27;;;;;;;9;11.9;;;;;;;14.1;85.8;97810;;;;
2022/09/16 02:04:27;;;;;;;9;11.9;;;;;;;14;85.5;97790;;;;
2022/09/16 02:14:27;;;;;;;8.6;13.9;;;;;;;13.9;85.3;97800;;;;
2022/09/16 02:25:27;;;;;;;8.6;13.9;;;;;;;13.9;85.1;97800;;;;
2022/09/16 02:36:27;;;;;;;8.6;13.9;;;;;;;13.7;84.9;97820;;;;
2022/09/16 02:46:27;;;;;;;6.5;9.3;;;;;;;13.6;85.1;97810;;;;
2022/09/16 02:57:27;;;;;;;6.5;9.3;;;;;;;13.6;84.9;97820;;;;
2022/09/16 03:07:27;;;;;;;6.5;9.3;;;;;;;13.6;85;97820;;;;
2022/09/16 03:18:27;;;;;;;6.4;16.3;;;;;;;13.6;84.5;97800;;;;
2022/09/16 03:28:27;;;;;;;6.4;16.3;;;;;;;13.6;84.4;97810;;;;
2022/09/16 03:39:27;;;;;;;5.6;7.7;;;;;;;13.6;84.4;97800;;;;
2022/09/16 03:49:28;;;;;;;5.6;7.7;;;;;;;13.6;84.5;97800;;;;
2022/09/16 03:59:27;;;;;;;5.6;7.7;;;;;;;13.5;84.6;97800;;;;
2022/09/16 04:09:27;;;;;;;6.2;10.4;;;;;;;13.3;84.8;97810;;;;
2022/09/16 04:20:27;;;;;;;6.2;10.4;;;;;;;13.1;85;97820;;;;
2022/09/16 04:30:27;;;;;;;6.2;10.4;;;;;;;12.9;85.5;97830;;;;
2022/09/16 04:40:27;;;;;;;6;8.3;;;;;;;12.9;86.1;97840;;;;
2022/09/16 04:51:27;;;;;;;6;8.3;;;;;;;12.8;86;97850;;;;
2022/09/16 05:02:28;;;;;;;6;8.3;;;;;;;12.8;86.4;97850;;;;
2022/09/16 05:12:27;;;;;;;6.4;10.7;;;;;;;12.9;87;97850;;;;
2022/09/16 05:23:27;;;;;;;6.4;10.7;;;;;;;13.2;86.6;97850;;;;
2022/09/16 05:33:27;;;;;;;6.4;10.7;;;;;;;13.6;85.7;97850;;;;
2022/09/16 05:44:27;;;;;;;6.3;9;;;;;;;14.1;83.5;97850;;;;
2022/09/16 05:54:27;;;;;;;6.3;9;;;;;;;14.4;80.8;97840;;;;
2022/09/16 06:05:31;;;;;;;6.3;9;;;;;;;14.8;80.4;97830;;;;
2022/09/16 06:16:27;;;;;;;4.9;7.9;;;;;;;14.9;78.3;97830;;;;
2022/09/16 06:26:27;;;;;;;4.9;7.9;;;;;;;15.2;78.8;97840;;;;
2022/09/16 06:36:27;;;;;;;4.9;7.9;;;;;;;15.4;76.2;97830;;;;
2022/09/16 06:46:27;;;;;;;3.9;9.5;;;;;;;15.6;75;97830;;;;
2022/09/16 06:57:27;;;;;;;3.9;9.5;;;;;;;15.6;74.9;97820;;;;
2022/09/16 07:07:27;;;;;;;3.9;9.5;;;;;;;15.7;73;97830;;;;
2022/09/16 07:17:28;;;;;;;2.6;5.9;;;;;;;16.4;72.7;97830;;;;
2022/09/16 07:27:27;;;;;;;2.6;5.9;;;;;;;16.7;71;97830;;;;
2022/09/16 07:38:27;;;;;;;2.6;5.9;;;;;;;17.3;67.8;97820;;;;
2022/09/16 09:19:17;;;;;;;3.3;6.7;;;;;;;16.7;67.5;97850;;;;
2022/09/16 09:30:17;;;;;;;3.3;6.7;;;;;;;17;67.5;97840;;;;
2022/09/16 09:40:17;;;;;;;3.3;6.7;;;;;;;17.3;67.3;97840;;;;
2022/09/16 09:51:17;;;;;;;4;8.3;;;;;;;17.4;66.9;97850;;;;
2022/09/16 10:01:17;;;;;;;4;8.3;;;;;;;17.3;67.5;97840;;;;
2022/09/16 10:12:17;;;;;;;4;8.3;;;;;;;17.3;67.2;97850;;;;
2022/09/16 10:22:17;;;;;;;3.9;7.2;;;;;;;17.4;66.8;97840;;;;
2022/09/16 10:33:17;;;;;;;3.9;7.2;;;;;;;18.2;65.1;97830;;;;
2022/09/16 10:43:17;;;;;;;3.9;7.2;;;;;;;18.8;62.7;97810;;;;
2022/09/16 10:53:17;;;;;;;3.5;6.3;;;;;;;19.1;61.9;97820;;;;
2022/09/16 11:04:17;;;;;;;3.5;6.3;;;;;;;18.9;59.4;97810;;;;
2022/09/16 11:14:17;;;;;;;3.5;6.3;;;;;;;18.9;58.6;97800;;;;
2022/09/16 11:25:17;;;;;;;3.3;8.5;;;;;;;19.5;57.4;97800;;;;
2022/09/16 11:36:17;;;;;;;3.3;8.5;;;;;;;19.3;57.6;97790;;;;
2022/09/16 11:47:17;;;;;;;3.3;8.5;;;;;;;19.3;57.6;97770;;;;
2022/09/16 11:57:17;;;;;;;2.5;5.1;;;;;;;19.8;56.9;97770;;;;
2022/09/16 12:08:21;;;;;;;2.5;5.1;;;;;;;19.8;54.3;97770;;;;
2022/09/16 12:18:17;;;;;;;2.5;5.1;;;;;;;19.3;56.5;97780;;;;
2022/09/16 12:29:17;;;;;;;2.4;5.9;;;;;;;18;62.1;97810;;;;
2022/09/16 12:40:17;;;;;;;2.4;5.9;;;;;;;16.8;64.5;97790;;;;
2022/09/16 12:51:17;;;;;;;2.7;7.3;;;;;;;16.7;65.5;97790;;;;
2022/09/16 13:02:17;;;;;;;2.7;7.3;;;;;;;16.6;65.7;97780;;;;
2022/09/16 13:12:17;;;;;;;2.7;7.3;;;;;;;16.2;66.1;97770;;;;
2022/09/16 13:22:17;;;;;;;2.3;4.3;;;;;;;16.4;67.4;97780;;;;
2022/09/16 13:33:17;;;;;;;2.3;4.3;;;;;;;16.3;68;97770;;;;
2022/09/16 13:44:17;;;;;;;2.3;4.3;;;;;;;16.6;66.6;97770;;;;
2022/09/16 13:55:17;;;;;;;2.4;5.2;;;;;;;16.6;65.9;97760;;;;
2022/09/16 14:05:17;;;;;;;2.4;5.2;;;;;;;17;67;97760;;;;
2022/09/16 14:16:17;;;;;;;2.4;5.2;;;;;;;17;66.1;97750;;;;
2022/09/16 14:26:17;;;;;;;2.7;5.2;;;;;;;17.1;66.6;97740;;;;
2022/09/16 14:37:17;;;;;;;2.7;5.2;;;;;;;17.5;67.5;97740;;;;
2022/09/16 14:47:17;;;;;;;2.7;5.2;;;;;;;18.3;65.4;97730;;;;
2022/09/16 14:57:17;;;;;;;4.3;8.9;;;;;;;18.5;64.3;97720;;;;
2022/09/16 15:08:17;;;;;;;4.3;8.9;;;;;;;18.1;64.2;97710;;;;
2022/09/16 15:19:17;;;;;;;4.8;10.3;;;;;;;18.1;64.1;97710;;;;
2022/09/16 15:30:17;;;;;;;4.8;10.3;;;;;;;17.6;64.6;97710;;;;
2022/09/16 15:40:17;;;;;;;4.8;10.3;;;;;;;17.6;64;97700;;;;
2022/09/16 15:51:17;;;;;;;3.7;6.8;;;;;;;17.3;62;97690;;;;
2022/09/16 16:01:17;;;;;;;3.7;6.8;;;;;;;17;61.7;97690;;;;
2022/09/16 16:11:17;;;;;;;3.7;6.8;;;;;;;16.7;62.2;97700;;;;
2022/09/16 16:22:17;;;;;;;2.6;5.7;;;;;;;16.4;64;97700;;;;
2022/09/16 16:33:17;;;;;;;2.6;5.7;;;;;;;15.9;66.3;97710;;;;
2022/09/16 16:44:17;;;;;;;2.6;5.7;;;;;;;15.8;67.9;97710;;;;
2022/09/16 16:54:17;;;;;;;4.5;9.3;;;;;;;15.5;70.1;97710;;;;
2022/09/16 17:05:17;;;;;;;4.5;9.3;;;;;;;15.3;71.4;97720;;;;
2022/09/16 17:15:17;;;;;;;4.5;9.3;;;;;;;15.2;73;97720;;;;
2022/09/16 17:25:17;;;;;;;4.4;7.1;;;;;;;15.1;74.6;97710;;;;
2022/09/16 17:35:17;;;;;;;4.4;7.1;;;;;;;14.9;75.6;97720;;;;
2022/09/16 17:46:19;;;;;;;4.4;7.1;;;;;;;14.9;75.5;97710;;;;
2022/09/16 17:57:17;;;;;;;6.4;13.2;;;;;;;14.4;77.2;97720;;;;
2022/09/16 18:08:17;;;;;;;6.4;13.2;;;;;;;14.4;77.6;97730;;;;
2022/09/16 18:19:17;;;;;;;5;10;;;;;;;14.2;77.1;97740;;;;
2022/09/16 18:30:17;;;;;;;5;10;;;;;;;14.2;76.7;97740;;;;
2022/09/16 18:41:17;;;;;;;5;10;;;;;;;14;77.6;97740;;;;
2022/09/16 18:51:17;;;;;;;5;9.1;;;;;;;13.7;77.3;97750;;;;
2022/09/16 19:01:17;;;;;;;5;9.1;;;;;;;13.3;77.2;97760;;;;
2022/09/16 19:11:17;;;;;;;5;9.1;;;;;;;12.9;79.4;97750;;;;
2022/09/16 19:22:17;;;;;;;4.7;8;;;;;;;12.6;81.4;97750;;;;
2022/09/16 19:32:17;;;;;;;4.7;8;;;;;;;12.4;81.9;97760;;;;
2022/09/16 19:42:17;;;;;;;4.7;8;;;;;;;12.4;82.6;97760;;;;
2022/09/16 19:53:17;;;;;;;4.8;9.3;;;;;;;12.5;81.3;97750;;;;
2022/09/16 20:03:17;;;;;;;4.8;9.3;;;;;;;12.6;80.5;97760;;;;
2022/09/16 20:14:17;;;;;;;4.8;9.3;;;;;;;12.7;80.3;97750;;;;
2022/09/16 20:25:17;;;;;;;4.6;7.8;;;;;;;12.8;78.1;97750;;;;
2022/09/16 20:35:17;;;;;;;4.6;7.8;;;;;;;12.9;77.8;97750;;;;
2022/09/16 20:45:17;;;;;;;4.6;7.8;;;;;;;12.8;77.4;97770;;;;
2022/09/16 20:55:17;;;;;;;4.5;8.2;;;;;;;12.5;77.3;97760;;;;
2022/09/16 21:06:17;;;;;;;4.5;8.2;;;;;;;12.1;78.9;97770;;;;
2022/09/16 21:17:18;;;;;;;4.5;8.2;;;;;;;11.8;79.9;97780;;;;
2022/09/16 21:27:17;;;;;;;4;6.5;;;;;;;11.6;80.6;97790;;;;
2022/09/16 21:38:17;;;;;;;4;6.5;;;;;;;11.5;80.5;97790;;;;
2022/09/16 21:48:18;;;;;;;4;6.5;;;;;;;11.5;80.4;97790;;;;
2022/09/16 21:59:18;;;;;;;3.7;6.9;;;;;;;11.3;80.1;97790;;;;
2022/09/16 22:09:17;;;;;;;3.7;6.9;;;;;;;11.1;80.1;97790;;;;
2022/09/16 22:20:17;;;;;;;4;5.7;;;;;;;10.9;80.3;97790;;;;
2022/09/16 22:30:17;;;;;;;4;5.7;;;;;;;10.7;82;97790;;;;
2022/09/16 22:40:17;;;;;;;4;5.7;;;;;;;10.6;83.1;97800;;;;
2022/09/16 22:51:17;;;;;;;3.5;6.5;;;;;;;10.7;83.7;97800;;;;
2022/09/16 23:02:17;;;;;;;3.5;6.5;;;;;;;10.6;84.1;97800;;;;
2022/09/16 23:12:17;;;;;;;3.5;6.5;;;;;;;10.7;84.1;97800;;;;
2022/09/16 23:23:17;;;;;;;3;5.2;;;;;;;10.8;84;97780;;;;
2022/09/16 23:34:17;;;;;;;3;5.2;;;;;;;10.8;84;97780;;;;
2022/09/16 23:44:17;;;;;;;3;5.2;;;;;;;10.8;83.8;97780;;;;
2022/09/16 23:55:17;;;;;;;3.7;7.9;;;;;;;10.7;84.1;97800;;;;
